createdAt,value
2022-10-03T00:00:38.086Z,100.00
2022-10-03T00:03:48.170Z,100.00
2022-10-03T00:06:39.939Z,100.00
2022-10-03T00:09:33.441Z,100.00
2022-10-03T00:12:43.198Z,100.00
2022-10-03T00:16:06.906Z,100.00
2022-10-03T00:18:46.709Z,100.00
2022-10-03T00:21:42.220Z,100.00
2022-10-03T00:24:52.712Z,100.00
2022-10-03T00:27:45.635Z,100.00
2022-10-03T00:30:31.017Z,100.00
2022-10-03T00:33:17.977Z,100.00
2022-10-03T00:36:18.156Z,100.00
2022-10-03T00:39:25.518Z,100.00
2022-10-03T00:42:15.986Z,100.00
2022-10-03T00:45:07.082Z,100.00
2022-10-03T00:48:10.468Z,100.00
2022-10-03T00:50:59.260Z,100.00
2022-10-03T00:54:21.604Z,100.00
2022-10-03T00:57:06.578Z,100.00
2022-10-03T01:00:12.827Z,100.00
2022-10-03T01:02:54.967Z,100.00
2022-10-03T01:05:39.271Z,100.00
2022-10-03T01:08:36.187Z,100.00
2022-10-03T01:11:43.636Z,100.00
2022-10-03T01:14:46.442Z,100.00
2022-10-03T01:17:55.110Z,100.00
2022-10-03T01:20:36.804Z,100.00
2022-10-03T01:23:54.508Z,100.00
2022-10-03T01:27:05.429Z,100.00
2022-10-03T01:30:10.751Z,100.00
2022-10-03T01:33:19.504Z,100.00
2022-10-03T01:36:04.195Z,100.00
2022-10-03T01:39:18.414Z,100.00
2022-10-03T01:45:27.708Z,100.00
2022-10-03T01:48:11.696Z,100.00
2022-10-03T01:51:19.624Z,100.00
2022-10-03T01:54:19.218Z,100.00
2022-10-03T01:56:59.911Z,100.00
2022-10-03T01:59:47.978Z,100.00
2022-10-03T02:02:47.498Z,100.00
2022-10-03T02:05:47.610Z,100.00
2022-10-03T02:08:41.464Z,100.00
2022-10-03T02:11:25.661Z,100.00
2022-10-03T02:14:15.821Z,100.00
2022-10-03T02:16:58.736Z,100.00
2022-10-03T02:19:53.068Z,100.00
2022-10-03T02:22:44.267Z,100.00
2022-10-03T02:25:24.876Z,100.00
2022-10-03T02:28:30.980Z,100.00
2022-10-03T02:31:23.213Z,100.00
2022-10-03T02:34:26.079Z,100.00
2022-10-03T02:36:57.919Z,100.00
2022-10-03T02:39:45.944Z,100.00
2022-10-03T02:42:51.797Z,100.00
2022-10-03T02:46:06.983Z,100.00
2022-10-03T02:48:57.528Z,100.00
2022-10-03T02:51:45.613Z,100.00
2022-10-03T02:54:41.803Z,100.00
2022-10-03T02:57:53.388Z,100.00
2022-10-03T03:00:43.054Z,100.00
2022-10-03T03:03:38.237Z,100.00
2022-10-03T03:06:28.404Z,100.00
2022-10-03T03:09:25.865Z,100.00
2022-10-03T03:12:41.025Z,100.00
2022-10-03T03:15:53.500Z,100.00
2022-10-03T03:18:50.869Z,100.00
2022-10-03T03:21:56.383Z,100.00
2022-10-03T03:24:46.689Z,100.00
2022-10-03T03:27:24.614Z,100.00
2022-10-03T03:30:14.606Z,100.00
2022-10-03T03:33:06.655Z,100.00
2022-10-03T03:35:41.254Z,100.00
2022-10-03T03:38:32.501Z,100.00
2022-10-03T03:41:28.889Z,100.00
2022-10-03T03:44:17.012Z,100.00
2022-10-03T03:47:33.660Z,100.00
2022-10-03T03:50:30.067Z,100.00
2022-10-03T03:53:37.281Z,100.00
2022-10-03T03:56:36.209Z,100.00
2022-10-03T03:59:55.760Z,100.00
2022-10-03T04:02:48.454Z,100.00
2022-10-03T04:05:55.219Z,100.00
2022-10-03T04:09:02.013Z,100.00
2022-10-03T04:12:10.619Z,100.00
2022-10-03T04:15:22.638Z,100.00
2022-10-03T04:19:01.918Z,100.00
2022-10-03T04:22:06.373Z,100.00
2022-10-03T04:25:19.537Z,100.00
2022-10-03T04:28:28.946Z,100.00
2022-10-03T04:31:43.550Z,100.00
2022-10-03T04:38:08.705Z,100.00
2022-10-03T04:41:05.331Z,100.00
2022-10-03T04:47:45.746Z,100.00
2022-10-03T04:51:07.977Z,100.00
2022-10-03T04:57:30.796Z,100.00
2022-10-03T05:00:20.495Z,100.00
2022-10-03T05:03:27.653Z,100.00
2022-10-03T05:06:00.563Z,100.00
2022-10-03T05:09:01.239Z,100.00
2022-10-03T05:12:16.949Z,100.00
2022-10-03T05:15:30.813Z,100.00
2022-10-03T05:18:47.930Z,100.00
2022-10-03T05:21:36.912Z,100.00
2022-10-03T05:24:31.595Z,100.00
2022-10-03T05:27:28.140Z,100.00
2022-10-03T05:30:14.977Z,100.00
2022-10-03T05:33:42.144Z,100.00
2022-10-03T05:36:46.583Z,100.00
2022-10-03T05:39:26.607Z,100.00
2022-10-03T05:45:53.144Z,100.00
2022-10-03T05:48:59.320Z,100.00
2022-10-03T05:52:13.361Z,100.00
2022-10-03T05:54:51.298Z,100.00
2022-10-03T06:08:19.553Z,100.00
2022-10-03T06:11:42.366Z,100.00
2022-10-03T06:14:29.204Z,100.00
2022-10-03T06:17:39.772Z,100.00
2022-10-03T06:20:48.587Z,100.00
2022-10-03T06:23:56.412Z,100.00
2022-10-03T06:27:05.822Z,100.00
2022-10-03T06:30:12.080Z,100.00
2022-10-03T06:33:17.671Z,100.00
2022-10-03T06:36:26.648Z,100.00
2022-10-03T06:39:32.500Z,100.00
2022-10-03T06:42:49.820Z,100.00
2022-10-03T06:45:38.455Z,100.00
2022-10-03T06:48:46.504Z,100.00
2022-10-03T06:51:35.921Z,100.00
2022-10-03T06:54:41.217Z,100.00
2022-10-03T06:57:48.806Z,100.00
2022-10-03T07:00:45.855Z,100.00
2022-10-03T07:03:52.674Z,100.00
2022-10-03T07:06:30.998Z,100.00
2022-10-03T07:09:37.307Z,100.00
2022-10-03T07:12:39.655Z,100.00
2022-10-03T07:16:08.875Z,100.00
2022-10-03T07:19:01.606Z,100.00
2022-10-03T07:22:22.983Z,100.00
2022-10-03T07:25:26.219Z,100.00
2022-10-03T07:28:24.569Z,100.00
2022-10-03T07:31:31.346Z,100.00
2022-10-03T07:34:36.144Z,100.00
2022-10-03T07:38:01.363Z,100.00
2022-10-03T07:40:47.431Z,100.00
2022-10-03T07:43:59.259Z,98.10
2022-10-03T07:47:17.649Z,98.52
2022-10-03T07:50:19.202Z,94.94
2022-10-03T07:53:10.559Z,93.65
2022-10-03T07:56:42.872Z,93.25
2022-10-03T07:59:37.583Z,93.12
2022-10-03T08:02:38.334Z,94.48
2022-10-03T08:05:44.202Z,91.11
2022-10-03T08:08:54.442Z,89.61
2022-10-03T08:11:58.177Z,92.08
2022-10-03T08:15:08.266Z,93.44
2022-10-03T08:17:56.531Z,91.76
2022-10-03T08:21:02.432Z,94.09
2022-10-03T08:24:10.090Z,94.43
2022-10-03T08:26:58.134Z,92.97
2022-10-03T08:29:46.578Z,90.65
2022-10-03T08:32:49.283Z,85.43
2022-10-03T08:35:38.696Z,87.53
2022-10-03T08:38:52.698Z,89.12
2022-10-03T08:42:03.878Z,86.98
2022-10-03T08:45:14.053Z,90.35
2022-10-03T08:48:25.598Z,88.05
2022-10-03T08:51:37.254Z,85.77
2022-10-03T08:54:56.074Z,84.51
2022-10-03T08:57:57.857Z,85.66
2022-10-03T09:00:56.140Z,86.60
2022-10-03T09:03:57.961Z,85.03
2022-10-03T09:10:03.670Z,83.02
2022-10-03T09:13:17.787Z,80.59
2022-10-03T09:16:34.611Z,81.12
2022-10-03T09:19:49.901Z,83.15
2022-10-03T09:22:23.902Z,80.81
2022-10-03T09:25:20.611Z,79.90
2022-10-03T09:27:54.676Z,81.44
2022-10-03T09:31:05.234Z,79.06
2022-10-03T09:33:49.423Z,78.91
2022-10-03T09:37:16.384Z,80.16
2022-10-03T09:40:03.159Z,82.24
2022-10-03T09:43:03.633Z,82.38
2022-10-03T09:46:13.118Z,80.55
2022-10-03T09:49:19.985Z,80.24
2022-10-03T09:52:32.712Z,78.65
2022-10-03T09:55:15.957Z,76.59
2022-10-03T09:58:38.943Z,78.43
2022-10-03T10:01:36.391Z,77.99
2022-10-03T10:04:43.357Z,73.86
2022-10-03T10:07:49.352Z,70.00
2022-10-03T10:10:58.533Z,71.34
2022-10-03T10:14:06.853Z,72.94
2022-10-03T10:17:08.521Z,73.71
2022-10-03T10:20:17.549Z,74.84
2022-10-03T10:23:23.535Z,75.17
2022-10-03T10:26:29.592Z,73.34
2022-10-03T10:29:30.156Z,72.54
2022-10-03T10:32:36.871Z,70.84
2022-10-03T10:36:07.508Z,68.06
2022-10-03T10:39:10.914Z,72.08
2022-10-03T10:42:35.035Z,68.54
2022-10-03T10:45:42.648Z,68.85
2022-10-03T10:48:49.438Z,69.50
2022-10-03T10:51:48.159Z,67.53
2022-10-03T10:54:53.046Z,67.15
2022-10-03T10:58:04.378Z,66.49
2022-10-03T11:00:59.544Z,67.01
2022-10-03T11:04:18.109Z,67.57
2022-10-03T11:07:14.220Z,69.77
2022-10-03T11:10:26.963Z,70.33
2022-10-03T11:13:36.340Z,70.81
2022-10-03T11:16:29.991Z,68.20
2022-10-03T11:19:35.704Z,67.73
2022-10-03T11:22:40.548Z,68.10
2022-10-03T11:25:49.039Z,69.29
2022-10-03T11:28:57.463Z,69.74
2022-10-03T11:31:45.323Z,71.13
2022-10-03T11:34:53.688Z,70.14
2022-10-03T11:37:50.032Z,69.38
2022-10-03T11:40:59.165Z,67.86
2022-10-03T11:43:51.709Z,67.16
2022-10-03T11:46:53.239Z,65.89
2022-10-03T11:49:21.760Z,66.26
2022-10-03T11:52:10.578Z,66.93
2022-10-03T11:54:51.043Z,65.85
2022-10-03T11:57:40.315Z,61.74
2022-10-03T12:00:23.958Z,61.25
2022-10-03T12:03:22.032Z,60.00
2022-10-03T12:06:21.387Z,59.05
2022-10-03T12:09:20.567Z,59.09
2022-10-03T12:12:07.532Z,56.67
2022-10-03T12:14:47.728Z,55.26
2022-10-03T12:17:37.350Z,56.28
2022-10-03T12:20:28.930Z,56.48
2022-10-03T12:23:41.556Z,54.76
2022-10-03T12:26:21.418Z,53.86
2022-10-03T12:28:55.518Z,53.58
2022-10-03T12:31:42.955Z,52.89
2022-10-03T12:34:41.172Z,52.73
2022-10-03T12:37:42.934Z,52.18
2022-10-03T12:40:20.644Z,54.06
2022-10-03T12:43:24.643Z,53.58
2022-10-03T12:46:32.083Z,51.32
2022-10-03T12:49:14.345Z,50.81
2022-10-03T12:51:58.385Z,53.27
2022-10-03T12:54:53.863Z,52.70
2022-10-03T12:57:52.802Z,51.12
2022-10-03T13:01:00.227Z,50.58
2022-10-03T13:04:26.108Z,48.51
2022-10-03T13:07:28.680Z,47.25
2022-10-03T13:10:21.913Z,50.21
2022-10-03T13:12:59.183Z,51.66
2022-10-03T13:16:04.626Z,50.77
2022-10-03T13:18:53.054Z,49.78
2022-10-03T13:21:48.709Z,48.95
2022-10-03T13:24:47.784Z,48.51
2022-10-03T13:27:34.432Z,49.39
2022-10-03T13:30:26.171Z,49.95
2022-10-03T13:33:01.750Z,53.72
2022-10-03T13:36:21.903Z,57.00
2022-10-03T13:39:14.116Z,56.73
2022-10-03T13:42:03.811Z,55.73
2022-10-03T13:44:55.786Z,55.09
2022-10-03T13:47:56.890Z,52.45
2022-10-03T13:50:36.327Z,52.13
2022-10-03T13:53:35.758Z,51.98
2022-10-03T13:56:32.744Z,50.80
2022-10-03T13:59:43.017Z,51.90
2022-10-03T14:03:05.894Z,50.66
2022-10-03T14:06:02.766Z,51.74
2022-10-03T14:09:16.643Z,53.28
2022-10-03T14:12:09.475Z,53.64
2022-10-03T14:15:15.530Z,53.82
2022-10-03T14:18:10.760Z,57.11
2022-10-03T14:21:21.853Z,58.55
2022-10-03T14:24:11.462Z,59.98
2022-10-03T14:26:53.729Z,62.01
2022-10-03T14:29:59.689Z,63.50
2022-10-03T14:35:51.821Z,65.88
2022-10-03T14:39:02.773Z,65.77
2022-10-03T14:42:06.188Z,66.08
2022-10-03T14:44:46.084Z,67.04
2022-10-03T14:47:22.391Z,66.99
2022-10-03T14:50:10.529Z,67.64
2022-10-03T14:53:08.125Z,68.18
2022-10-03T14:56:12.205Z,69.38
2022-10-03T14:58:55.266Z,69.76
2022-10-03T15:01:31.982Z,70.16
2022-10-03T15:04:36.213Z,71.04
2022-10-03T15:07:12.612Z,71.08
2022-10-03T15:09:53.863Z,72.65
2022-10-03T15:12:38.845Z,72.45
2022-10-03T15:15:26.819Z,73.14
2022-10-03T15:18:00.920Z,74.59
2022-10-03T15:20:38.829Z,75.12
2022-10-03T15:23:18.248Z,76.25
2022-10-03T15:25:58.212Z,76.27
2022-10-03T15:29:00.971Z,77.27
2022-10-03T15:31:46.249Z,77.76
2022-10-03T15:34:22.891Z,80.00
2022-10-03T15:37:00.695Z,80.53
2022-10-03T15:39:45.573Z,82.11
2022-10-03T15:42:30.209Z,83.14
2022-10-03T15:48:37.740Z,84.60
2022-10-03T15:51:19.096Z,84.11
2022-10-03T15:53:53.666Z,84.55
2022-10-03T15:56:44.900Z,83.81
2022-10-03T15:59:34.463Z,83.74
2022-10-03T16:02:30.460Z,83.71
2022-10-03T16:05:08.454Z,85.61
2022-10-03T16:08:11.272Z,85.13
2022-10-03T16:10:46.873Z,84.85
2022-10-03T16:14:09.157Z,84.86
2022-10-03T16:16:45.068Z,85.03
2022-10-03T16:19:41.586Z,85.10
2022-10-03T16:22:37.299Z,85.12
2022-10-03T16:25:18.484Z,83.22
2022-10-03T16:27:57.918Z,84.36
2022-10-03T16:30:45.824Z,83.13
2022-10-03T16:33:38.308Z,83.80
2022-10-03T16:36:13.814Z,84.98
2022-10-03T16:39:05.504Z,86.06
2022-10-03T16:41:49.476Z,88.20
2022-10-03T16:44:48.320Z,87.40
2022-10-03T16:47:28.948Z,89.18
2022-10-03T16:50:18.433Z,90.12
2022-10-03T16:52:55.941Z,91.02
2022-10-03T16:55:38.542Z,92.99
2022-10-03T16:58:09.712Z,93.57
2022-10-03T17:01:22.096Z,95.16
2022-10-03T17:03:55.155Z,96.50
2022-10-03T17:06:36.790Z,97.31
2022-10-03T17:09:26.063Z,96.54
2022-10-03T17:12:04.612Z,97.22
2022-10-03T17:14:44.297Z,97.41
2022-10-03T17:18:08.755Z,97.77
2022-10-03T17:20:50.726Z,96.76
2022-10-03T17:24:06.994Z,97.46
2022-10-03T17:26:53.025Z,98.92
2022-10-03T17:29:29.001Z,100.00
2022-10-03T17:32:17.424Z,100.00
2022-10-03T17:35:11.479Z,100.00
2022-10-03T17:38:44.646Z,100.00
2022-10-03T17:41:46.114Z,100.00
2022-10-03T17:44:51.782Z,100.00
2022-10-03T17:48:29.792Z,100.00
2022-10-03T17:51:30.361Z,100.00
2022-10-03T17:54:12.284Z,100.00
2022-10-03T17:56:57.974Z,100.00
2022-10-03T17:59:47.194Z,100.00
2022-10-03T18:02:28.851Z,100.00
2022-10-03T18:05:10.415Z,100.00
2022-10-03T18:07:40.705Z,100.00
2022-10-03T18:10:30.047Z,100.00
2022-10-03T18:13:02.219Z,100.00
2022-10-03T18:16:00.878Z,100.00
2022-10-03T18:18:59.503Z,100.00
2022-10-03T18:22:06.944Z,100.00
2022-10-03T18:28:29.392Z,100.00
2022-10-03T18:31:25.543Z,100.00
2022-10-03T18:34:24.991Z,100.00
2022-10-03T18:40:34.690Z,100.00
2022-10-03T18:43:27.539Z,100.00
2022-10-03T18:46:27.947Z,100.00
2022-10-03T18:49:36.208Z,100.00
2022-10-03T18:52:29.634Z,100.00
2022-10-03T18:55:40.135Z,100.00
2022-10-03T19:01:58.259Z,100.00
2022-10-03T19:04:46.643Z,100.00
2022-10-03T19:07:32.862Z,100.00
2022-10-03T19:10:16.290Z,100.00
2022-10-03T19:13:02.515Z,100.00
2022-10-03T19:16:25.451Z,100.00
2022-10-03T19:19:25.776Z,100.00
2022-10-03T19:22:09.859Z,100.00
2022-10-03T19:24:58.503Z,100.00
2022-10-03T19:27:58.914Z,100.00
2022-10-03T19:30:35.888Z,100.00
2022-10-03T19:33:25.193Z,100.00
2022-10-03T19:36:06.066Z,100.00
2022-10-03T19:38:43.298Z,100.00
2022-10-03T19:41:52.835Z,100.00
2022-10-03T19:44:33.393Z,100.00
2022-10-03T19:47:19.980Z,100.00
2022-10-03T19:50:21.306Z,100.00
2022-10-03T19:52:50.757Z,100.00
2022-10-03T19:55:26.151Z,100.00
2022-10-03T19:58:24.191Z,100.00
2022-10-03T20:01:01.677Z,100.00
2022-10-03T20:04:01.412Z,100.00
2022-10-03T20:06:47.440Z,100.00
2022-10-03T20:09:27.767Z,100.00
2022-10-03T20:44:53.044Z,100.00
2022-10-03T20:52:10.370Z,100.00
2022-10-03T21:05:24.512Z,100.00
2022-10-03T21:10:55.984Z,100.00
2022-10-03T21:13:57.275Z,100.00
2022-10-03T21:16:49.634Z,100.00
2022-10-03T21:19:50.390Z,100.00
2022-10-03T22:11:55.735Z,100.00
